createdAt,value
2022-12-24T00:01:18.527Z,99964.81
2022-12-24T00:04:22.357Z,99958.03
2022-12-24T00:07:25.232Z,99952.00
2022-12-24T00:10:30.530Z,99965.97
2022-12-24T00:13:33.700Z,99961.50
2022-12-24T00:16:37.709Z,99969.59
2022-12-24T00:19:41.798Z,99959.25
2022-12-24T00:22:44.483Z,99960.78
2022-12-24T00:25:50.292Z,99964.84
2022-12-24T00:28:53.371Z,99960.28
2022-12-24T00:31:57.235Z,99963.41
2022-12-24T00:35:01.916Z,99965.16
2022-12-24T00:38:04.909Z,99963.06
2022-12-24T00:41:26.155Z,99963.56
2022-12-24T00:44:29.203Z,99968.94
2022-12-24T00:47:33.437Z,99978.03
2022-12-24T00:50:37.448Z,99977.59
2022-12-24T00:53:40.445Z,99983.41
2022-12-24T00:56:45.714Z,99981.06
2022-12-24T00:59:48.419Z,99995.28
2022-12-24T01:02:52.423Z,99996.84
2022-12-24T01:05:56.369Z,99999.16
2022-12-24T01:08:59.124Z,99989.34
2022-12-24T01:12:04.575Z,99997.28
2022-12-24T01:15:08.597Z,100008.34
2022-12-24T01:18:12.458Z,100011.22
2022-12-24T01:21:16.343Z,100001.31
2022-12-24T01:24:20.346Z,100005.47
2022-12-24T01:27:25.796Z,100013.03
2022-12-24T01:30:28.483Z,100013.78
2022-12-24T01:33:32.691Z,100014.03
2022-12-24T01:36:36.862Z,100019.81
2022-12-24T01:39:39.825Z,100023.22
2022-12-24T01:43:07.402Z,100023.53
2022-12-24T01:46:18.199Z,100020.63
2022-12-24T01:49:23.087Z,100021.31
2022-12-24T01:52:30.947Z,100040.13
2022-12-24T01:55:33.715Z,100031.78
2022-12-24T01:58:40.202Z,100033.88
2022-12-24T02:01:43.090Z,100050.72
2022-12-24T02:04:54.930Z,100049.88
2022-12-24T02:07:59.552Z,100063.00
2022-12-24T02:11:02.298Z,100063.59
2022-12-24T02:14:07.820Z,100066.97
2022-12-24T02:17:18.499Z,100067.47
2022-12-24T02:20:49.023Z,100070.88
2022-12-24T02:24:25.082Z,100070.09
2022-12-24T02:27:38.444Z,100077.78
2022-12-24T02:30:47.820Z,100083.09
2022-12-24T02:33:55.970Z,100091.84
2022-12-24T02:37:05.467Z,100102.31
2022-12-24T02:40:16.537Z,100093.81
2022-12-24T02:46:49.005Z,100099.25
2022-12-24T02:49:51.931Z,100105.78
2022-12-24T02:52:56.063Z,100113.13
2022-12-24T02:56:20.189Z,100107.75
2022-12-24T02:59:52.773Z,100122.47
2022-12-24T03:03:14.849Z,100115.25
2022-12-24T03:06:28.594Z,100115.44
2022-12-24T03:09:37.829Z,100119.47
2022-12-24T03:12:45.187Z,100117.16
2022-12-24T03:15:49.474Z,100110.03
2022-12-24T03:18:57.279Z,100122.44
2022-12-24T03:22:01.944Z,100132.72
2022-12-24T03:25:06.585Z,100134.16
2022-12-24T03:28:12.750Z,100143.16
2022-12-24T03:31:16.210Z,100139.47
2022-12-24T03:34:22.303Z,100149.19
2022-12-24T03:37:26.667Z,100150.09
2022-12-24T03:40:30.676Z,100155.28
2022-12-24T03:43:35.051Z,100153.88
2022-12-24T03:46:38.028Z,100166.06
2022-12-24T03:49:43.359Z,100165.00
2022-12-24T03:52:46.169Z,100165.00
2022-12-24T03:55:50.309Z,100168.81
2022-12-24T03:58:54.705Z,100171.53
2022-12-24T04:01:57.506Z,100178.91
2022-12-24T04:05:02.990Z,100170.66
2022-12-24T04:08:05.864Z,100169.06
2022-12-24T04:11:12.251Z,100172.53
2022-12-24T04:14:16.212Z,100178.44
2022-12-24T04:17:19.280Z,100188.81
2022-12-24T04:20:24.518Z,100199.19
2022-12-24T04:23:27.522Z,100193.59
2022-12-24T04:26:31.468Z,100192.78
2022-12-24T04:29:35.367Z,100193.66
2022-12-24T04:32:38.113Z,100191.44
2022-12-24T04:35:43.864Z,100209.59
2022-12-24T04:38:47.183Z,100211.00
2022-12-24T04:41:51.090Z,100217.03
2022-12-24T04:44:54.963Z,100227.94
2022-12-24T04:47:57.694Z,100227.63
2022-12-24T04:51:05.339Z,100233.72
2022-12-24T04:54:09.218Z,100229.72
2022-12-24T04:57:16.771Z,100238.06
2022-12-24T05:00:21.035Z,100233.28
2022-12-24T05:03:39.026Z,100225.41
2022-12-24T05:06:46.935Z,100234.91
2022-12-24T05:09:54.268Z,100234.09
2022-12-24T05:12:59.995Z,100240.47
2022-12-24T05:16:08.154Z,100239.38
2022-12-24T05:19:11.845Z,100233.28
2022-12-24T05:22:34.722Z,100237.88
2022-12-24T05:29:22.999Z,100227.75
2022-12-24T05:32:27.604Z,100239.28
2022-12-24T05:35:31.409Z,100233.91
2022-12-24T05:38:44.380Z,100238.13
2022-12-24T05:41:49.799Z,100240.66
2022-12-24T05:48:27.593Z,100248.84
2022-12-24T05:51:33.663Z,100260.81
2022-12-24T05:54:39.029Z,100270.25
2022-12-24T05:57:44.439Z,100272.38
2022-12-24T06:00:51.262Z,100269.91
2022-12-24T06:07:21.614Z,100278.94
2022-12-24T06:10:26.909Z,100286.03
2022-12-24T06:13:37.722Z,100295.97
2022-12-24T06:16:42.538Z,100289.25
2022-12-24T06:19:45.447Z,100293.13
2022-12-24T06:22:49.338Z,100294.25
2022-12-24T06:25:53.621Z,100298.53
2022-12-24T06:28:57.459Z,100302.69
2022-12-24T06:32:01.351Z,100304.97
2022-12-24T06:35:04.388Z,100306.41
2022-12-24T06:38:08.385Z,100318.50
2022-12-24T06:41:12.514Z,100311.38
2022-12-24T06:44:16.555Z,100318.03
2022-12-24T06:47:19.318Z,100318.75
2022-12-24T06:50:22.058Z,100314.28
2022-12-24T06:53:25.955Z,100326.94
2022-12-24T06:56:30.283Z,100332.03
2022-12-24T06:59:34.234Z,100338.78
2022-12-24T07:02:38.187Z,100348.88
2022-12-24T07:05:42.078Z,100354.31
2022-12-24T07:08:45.985Z,100352.19
2022-12-24T07:11:50.077Z,100359.63
2022-12-24T07:14:53.959Z,100364.50
2022-12-24T07:17:57.820Z,100373.03
2022-12-24T07:21:02.090Z,100373.06
2022-12-24T07:24:12.764Z,100381.91
2022-12-24T07:27:17.815Z,100383.56
2022-12-24T07:30:22.623Z,100383.56
2022-12-24T07:33:26.344Z,100382.63
2022-12-24T07:36:30.043Z,100380.50
2022-12-24T07:39:33.566Z,100388.91
2022-12-24T07:42:43.989Z,100396.59
2022-12-24T07:45:51.389Z,100400.88
2022-12-24T07:48:56.700Z,100412.38
2022-12-24T07:52:02.856Z,100417.22
2022-12-24T07:55:06.735Z,100414.63
2022-12-24T07:58:14.629Z,100427.41
2022-12-24T08:01:18.074Z,100420.78
2022-12-24T08:04:21.518Z,100411.78
2022-12-24T08:07:25.361Z,100417.47
2022-12-24T08:10:28.970Z,100419.22
2022-12-24T08:13:34.804Z,100424.44
2022-12-24T08:16:44.016Z,100424.69
2022-12-24T08:19:48.782Z,100427.41
2022-12-24T08:22:52.060Z,100422.88
2022-12-24T08:25:56.523Z,100435.69
2022-12-24T08:29:01.479Z,100436.66
2022-12-24T08:32:05.138Z,100440.69
2022-12-24T08:35:09.725Z,100436.53
2022-12-24T08:38:17.225Z,100448.88
2022-12-24T08:41:21.734Z,100449.47
2022-12-24T08:44:31.781Z,100459.78
2022-12-24T08:47:38.929Z,100466.06
2022-12-24T08:50:47.044Z,100461.53
2022-12-24T08:53:50.911Z,100466.63
2022-12-24T08:56:55.600Z,100464.59
2022-12-24T09:00:00.362Z,100475.63
2022-12-24T09:03:05.360Z,100468.53
2022-12-24T09:06:10.023Z,100474.22
2022-12-24T09:09:13.107Z,100474.44
2022-12-24T09:12:17.803Z,100484.66
2022-12-24T09:15:22.302Z,100484.16
2022-12-24T09:18:27.023Z,100487.84
2022-12-24T09:21:29.761Z,100500.88
2022-12-24T09:24:32.937Z,100498.63
2022-12-24T09:27:35.848Z,100504.56
2022-12-24T09:30:40.017Z,100517.13
2022-12-24T09:33:45.223Z,100523.50
2022-12-24T09:36:49.146Z,100537.38
2022-12-24T09:39:51.938Z,100522.34
2022-12-24T09:42:57.557Z,100531.69
2022-12-24T09:46:10.775Z,100540.47
2022-12-24T09:52:44.297Z,100548.19
2022-12-24T09:55:50.279Z,100554.81
2022-12-24T09:58:59.602Z,100557.06
2022-12-24T10:02:04.046Z,100565.00
2022-12-24T10:05:16.376Z,100567.28
2022-12-24T10:08:29.052Z,100574.16
2022-12-24T10:11:44.560Z,100566.06
2022-12-24T10:15:01.541Z,100574.84
2022-12-24T10:18:22.865Z,100576.88
2022-12-24T10:21:35.866Z,100582.34
2022-12-24T10:24:50.302Z,100582.44
2022-12-24T10:27:57.205Z,100587.16
2022-12-24T10:31:05.821Z,100590.53
2022-12-24T10:34:20.988Z,100605.22
2022-12-24T10:37:25.268Z,100615.91
2022-12-24T10:40:46.022Z,100617.66
2022-12-24T10:43:50.453Z,100622.78
2022-12-24T10:46:54.437Z,100625.75
2022-12-24T10:50:05.214Z,100619.81
2022-12-24T10:53:17.436Z,100625.97
2022-12-24T10:56:22.761Z,100631.66
2022-12-24T10:59:28.810Z,100637.34
2022-12-24T11:02:33.780Z,100629.75
2022-12-24T11:05:39.510Z,100640.47
2022-12-24T11:08:45.469Z,100644.22
2022-12-24T11:11:49.554Z,100643.63
2022-12-24T11:18:24.660Z,100646.50
2022-12-24T11:21:31.712Z,100645.78
2022-12-24T11:24:38.448Z,100651.59
2022-12-24T11:27:44.579Z,100649.47
2022-12-24T11:31:00.226Z,100651.81
2022-12-24T11:34:20.018Z,100649.00
2022-12-24T11:37:27.306Z,100653.97
2022-12-24T11:40:36.035Z,100657.53
2022-12-24T11:43:48.852Z,100648.38
2022-12-24T11:46:56.682Z,100655.72
2022-12-24T11:50:27.153Z,100665.19
2022-12-24T11:53:38.029Z,100660.31
2022-12-24T11:56:47.086Z,100665.09
2022-12-24T11:59:52.276Z,100672.56
2022-12-24T12:03:02.037Z,100678.13
2022-12-24T12:06:14.151Z,100672.44
2022-12-24T12:09:22.598Z,100679.59
2022-12-24T12:12:29.799Z,100677.19
2022-12-24T12:15:36.513Z,100683.72
2022-12-24T12:18:43.729Z,100687.06
2022-12-24T12:21:51.351Z,100685.66
2022-12-24T12:24:58.562Z,100684.22
2022-12-24T12:28:05.538Z,100695.13
2022-12-24T12:31:16.981Z,100699.66
2022-12-24T12:41:29.478Z,100701.66
2022-12-24T12:44:52.484Z,100705.91
2022-12-24T12:48:12.763Z,100700.09
2022-12-24T12:51:26.389Z,100708.97
2022-12-24T12:54:39.954Z,100704.22
2022-12-24T12:57:52.933Z,100703.47
2022-12-24T13:01:03.542Z,100702.31
2022-12-24T13:04:42.832Z,100709.19
2022-12-24T13:08:02.616Z,100704.63
2022-12-24T13:11:27.635Z,100716.75
2022-12-24T13:14:44.366Z,100718.44
2022-12-24T13:18:04.065Z,100714.38
2022-12-24T13:21:17.857Z,100713.88
2022-12-24T13:24:27.188Z,100708.53
2022-12-24T13:27:32.868Z,100715.88
2022-12-24T13:30:41.165Z,100725.50
2022-12-24T13:33:50.224Z,100727.25
2022-12-24T13:37:21.128Z,100734.84
2022-12-24T13:40:26.712Z,100741.03
2022-12-24T13:44:17.326Z,100737.31
2022-12-24T13:47:32.293Z,100753.97
2022-12-24T13:50:40.051Z,100759.78
2022-12-24T13:53:47.101Z,100762.63
2022-12-24T13:56:51.675Z,100763.78
2022-12-24T14:00:03.523Z,100768.81
2022-12-24T14:03:20.148Z,100779.16
2022-12-24T14:06:27.714Z,100781.91
2022-12-24T14:09:32.809Z,100782.97
2022-12-24T14:12:51.937Z,100794.50
2022-12-24T14:16:06.165Z,100804.38
2022-12-24T14:19:16.326Z,100801.53
2022-12-24T14:22:31.143Z,100807.84
2022-12-24T14:25:34.268Z,100801.66
2022-12-24T14:28:44.388Z,100802.75
2022-12-24T14:31:54.255Z,100799.78
2022-12-24T14:35:09.020Z,100807.91
2022-12-24T14:38:19.913Z,100799.22
2022-12-24T14:41:37.019Z,100818.38
2022-12-24T14:44:49.625Z,100830.88
2022-12-24T14:48:05.245Z,100831.44
2022-12-24T14:51:16.186Z,100842.13
2022-12-24T14:54:36.724Z,100839.16
2022-12-24T14:57:39.731Z,100848.94
2022-12-24T15:00:45.829Z,100846.69
2022-12-24T15:04:01.489Z,100856.19
2022-12-24T15:07:08.787Z,100856.06
2022-12-24T15:10:27.768Z,100864.97
2022-12-24T15:13:36.944Z,100871.75
2022-12-24T15:16:42.309Z,100871.84
2022-12-24T15:19:52.842Z,100884.22
2022-12-24T15:23:00.174Z,100875.41
2022-12-24T15:26:24.030Z,100877.50
2022-12-24T15:29:29.562Z,100880.38
2022-12-24T15:32:37.038Z,100880.84
2022-12-24T15:39:24.019Z,100883.03
2022-12-24T15:42:37.182Z,100879.47
2022-12-24T15:45:45.616Z,100892.78
2022-12-24T15:48:51.665Z,100907.69
2022-12-24T15:51:55.816Z,100905.25
2022-12-24T15:54:58.687Z,100912.25
2022-12-24T15:58:04.543Z,100920.28
2022-12-24T16:01:28.047Z,100931.13
2022-12-24T16:04:32.137Z,100931.47
2022-12-24T16:08:04.675Z,100936.09
2022-12-24T16:11:16.008Z,100937.38
2022-12-24T16:14:21.428Z,100931.28
2022-12-24T16:17:26.270Z,100945.63
2022-12-24T16:23:56.484Z,100945.72
2022-12-24T16:26:59.233Z,100949.03
2022-12-24T16:30:04.691Z,100937.06
2022-12-24T16:33:13.758Z,100938.56
2022-12-24T16:36:17.661Z,100952.19
2022-12-24T16:43:04.465Z,100954.50
2022-12-24T16:46:10.129Z,100957.22
2022-12-24T16:49:16.813Z,100962.28
2022-12-24T16:52:23.281Z,100961.31
2022-12-24T16:55:27.178Z,100964.25
2022-12-24T16:58:30.492Z,100966.66
2022-12-24T17:01:35.953Z,100970.06
2022-12-24T17:04:39.518Z,100971.56
2022-12-24T17:07:44.438Z,100978.53
2022-12-24T17:10:52.322Z,100974.00
2022-12-24T17:13:56.202Z,100985.53
2022-12-24T17:17:00.328Z,100983.66
2022-12-24T17:20:05.738Z,100993.19
2022-12-24T17:23:09.590Z,101004.97
2022-12-24T17:26:15.218Z,101007.75
2022-12-24T17:29:19.272Z,101009.22
2022-12-24T17:32:23.373Z,101005.88
2022-12-24T17:35:26.081Z,101012.63
2022-12-24T17:38:28.848Z,101011.78
2022-12-24T17:41:32.730Z,101021.19
2022-12-24T17:44:36.669Z,101022.22
2022-12-24T17:47:41.290Z,101022.63
2022-12-24T17:50:45.232Z,101032.88
2022-12-24T17:53:48.179Z,101032.19
2022-12-24T17:56:52.230Z,101036.38
2022-12-24T17:59:56.196Z,101037.84
2022-12-24T18:03:00.378Z,101037.78
2022-12-24T18:06:06.125Z,101031.66
2022-12-24T18:09:08.967Z,101044.16
2022-12-24T18:12:12.950Z,101047.50
2022-12-24T18:15:20.743Z,101038.88
2022-12-24T18:18:24.809Z,101044.13
2022-12-24T18:21:30.839Z,101054.59
2022-12-24T18:24:33.583Z,101061.63
2022-12-24T18:27:37.786Z,101061.81
2022-12-24T18:30:41.687Z,101063.03
2022-12-24T18:33:47.495Z,101068.84
2022-12-24T18:36:55.287Z,101060.41
2022-12-24T18:39:58.658Z,101075.31
2022-12-24T18:43:02.682Z,101083.88
2022-12-24T18:46:09.340Z,101083.19
2022-12-24T18:49:13.502Z,101080.03
2022-12-24T18:52:22.614Z,101073.69
2022-12-24T18:55:25.641Z,101078.91
2022-12-24T18:58:29.590Z,101083.69
2022-12-24T19:01:35.713Z,101089.59
2022-12-24T19:04:39.980Z,101094.81
2022-12-24T19:07:44.024Z,101093.31
2022-12-24T19:10:47.967Z,101106.50
2022-12-24T19:13:53.116Z,101107.81
2022-12-24T19:16:57.264Z,101096.81
2022-12-24T19:20:01.468Z,101093.00
2022-12-24T19:23:05.464Z,101093.84
2022-12-24T19:26:08.422Z,101088.56
2022-12-24T19:29:12.429Z,101090.22
2022-12-24T19:32:16.444Z,101093.56
2022-12-24T19:35:20.538Z,101094.63
2022-12-24T19:38:24.570Z,101104.47
2022-12-24T19:41:29.218Z,101118.72
2022-12-24T19:44:33.366Z,101120.63
2022-12-24T19:47:36.095Z,101125.25
2022-12-24T19:50:41.406Z,101126.91
2022-12-24T19:53:45.543Z,101123.72
2022-12-24T19:56:48.263Z,101127.28
2022-12-24T19:59:52.235Z,101129.63
2022-12-24T20:02:56.336Z,101127.75
2022-12-24T20:06:00.593Z,101126.69
2022-12-24T20:09:07.131Z,101122.28
2022-12-24T20:12:09.979Z,101127.28
2022-12-24T20:15:14.075Z,101132.97
2022-12-24T20:18:18.080Z,101131.38
2022-12-24T20:21:22.540Z,101137.22
2022-12-24T20:24:25.488Z,101146.53
2022-12-24T20:27:28.384Z,101130.69
2022-12-24T20:30:33.260Z,101137.78
2022-12-24T20:33:37.586Z,101144.28
2022-12-24T20:36:41.796Z,101140.19
2022-12-24T20:39:45.779Z,101146.09
2022-12-24T20:42:49.742Z,101148.00
2022-12-24T20:45:52.944Z,101147.16
2022-12-24T20:48:58.074Z,101163.09
2022-12-24T20:52:02.155Z,101163.16
2022-12-24T20:55:06.582Z,101156.66
2022-12-24T20:58:12.180Z,101162.63
2022-12-24T21:01:18.597Z,101165.22
2022-12-24T21:04:23.749Z,101163.31
2022-12-24T21:07:27.886Z,101166.50
2022-12-24T21:10:34.433Z,101170.31
2022-12-24T21:13:37.646Z,101176.38
2022-12-24T21:16:41.469Z,101174.75
2022-12-24T21:19:45.596Z,101173.88
2022-12-24T21:22:49.670Z,101180.16
2022-12-24T21:26:02.107Z,101186.06
2022-12-24T21:29:07.987Z,101192.97
2022-12-24T21:32:10.675Z,101188.50
2022-12-24T21:35:14.794Z,101193.66
2022-12-24T21:38:18.857Z,101192.75
2022-12-24T21:41:25.187Z,101212.00
2022-12-24T21:44:29.186Z,101210.94
2022-12-24T21:47:32.016Z,101209.72
2022-12-24T21:50:53.716Z,101215.97
2022-12-24T21:54:18.110Z,101218.97
2022-12-24T21:57:39.509Z,101214.13
2022-12-24T22:04:04.091Z,101235.59
2022-12-24T22:07:25.873Z,101239.75
2022-12-24T22:10:47.399Z,101246.88
2022-12-24T22:13:51.372Z,101247.56
2022-12-24T22:16:55.360Z,101253.63
2022-12-24T22:19:58.106Z,101250.22
2022-12-24T22:23:02.088Z,101250.28
2022-12-24T22:26:14.418Z,101250.66
2022-12-24T22:29:19.149Z,101261.81
2022-12-24T22:32:24.609Z,101258.09
2022-12-24T22:35:27.889Z,101258.47
2022-12-24T22:38:32.601Z,101267.50
2022-12-24T22:41:37.158Z,101273.19
2022-12-24T22:44:41.798Z,101278.41
2022-12-24T22:47:45.989Z,101276.06
2022-12-24T22:50:49.215Z,101284.50
2022-12-24T22:53:53.821Z,101283.44
2022-12-24T22:56:58.553Z,101289.56
2022-12-24T23:00:03.087Z,101295.84
2022-12-24T23:03:08.519Z,101293.78
2022-12-24T23:06:12.675Z,101294.44
2022-12-24T23:09:18.262Z,101303.84
2022-12-24T23:12:44.159Z,101303.84
2022-12-24T23:15:49.571Z,101307.88
2022-12-24T23:18:54.712Z,101299.53
2022-12-24T23:21:58.103Z,101302.25
2022-12-24T23:25:02.489Z,101298.94
2022-12-24T23:28:07.240Z,101302.34
2022-12-24T23:31:11.780Z,101303.34
2022-12-24T23:34:16.019Z,101305.00
2022-12-24T23:37:19.172Z,101303.19
2022-12-24T23:40:24.252Z,101293.34
2022-12-24T23:43:29.161Z,101291.91
2022-12-24T23:46:33.805Z,101296.16
2022-12-24T23:49:38.271Z,101299.31
2022-12-24T23:52:41.512Z,101303.97
2022-12-24T23:55:46.493Z,101292.00
2022-12-24T23:58:52.134Z,101295.78
